sensor_id;sensor_type;location;lat;lon;timestamp;temperature;humidity
13744;DHT22;6943;52.368;9.966;2022-11-20T00:01:15;-1.70;1.00
13744;DHT22;6943;52.368;9.966;2022-11-20T00:03:45;-1.60;1.00
13744;DHT22;6943;52.368;9.966;2022-11-20T00:06:16;-1.60;1.00
13744;DHT22;6943;52.368;9.966;2022-11-20T00:08:42;-1.70;1.00
13744;DHT22;6943;52.368;9.966;2022-11-20T00:11:10;-1.60;1.00
13744;DHT22;6943;52.368;9.966;2022-11-20T00:13:36;-1.60;1.00
13744;DHT22;6943;52.368;9.966;2022-11-20T00:16:03;-1.70;1.00
13744;DHT22;6943;52.368;9.966;2022-11-20T00:18:30;-1.60;1.00
13744;DHT22;6943;52.368;9.966;2022-11-20T00:21:07;-1.60;1.00
13744;DHT22;6943;52.368;9.966;2022-11-20T00:23:33;-1.60;1.00
13744;DHT22;6943;52.368;9.966;2022-11-20T00:26:03;-1.60;1.00
13744;DHT22;6943;52.368;9.966;2022-11-20T00:28:29;-1.60;1.00
13744;DHT22;6943;52.368;9.966;2022-11-20T00:31:01;-0.80;1.00
13744;DHT22;6943;52.368;9.966;2022-11-20T00:33:27;-1.70;1.00
13744;DHT22;6943;52.368;9.966;2022-11-20T00:35:53;-1.60;1.00
13744;DHT22;6943;52.368;9.966;2022-11-20T00:38:18;-1.50;1.00
13744;DHT22;6943;52.368;9.966;2022-11-20T00:40:44;-1.50;1.00
13744;DHT22;6943;52.368;9.966;2022-11-20T00:43:09;-1.50;1.00
13744;DHT22;6943;52.368;9.966;2022-11-20T00:45:35;-1.50;1.00
13744;DHT22;6943;52.368;9.966;2022-11-20T00:48:00;-1.50;1.00
13744;DHT22;6943;52.368;9.966;2022-11-20T00:50:26;-1.50;1.00
13744;DHT22;6943;52.368;9.966;2022-11-20T00:52:52;-1.50;1.00
13744;DHT22;6943;52.368;9.966;2022-11-20T00:55:18;-0.50;1.00
13744;DHT22;6943;52.368;9.966;2022-11-20T00:57:44;-1.50;1.00
13744;DHT22;6943;52.368;9.966;2022-11-20T01:00:10;-1.50;1.00
13744;DHT22;6943;52.368;9.966;2022-11-20T01:02:37;-1.50;1.00
13744;DHT22;6943;52.368;9.966;2022-11-20T01:05:03;-1.60;1.00
13744;DHT22;6943;52.368;9.966;2022-11-20T01:07:29;-1.60;1.00
13744;DHT22;6943;52.368;9.966;2022-11-20T01:09:54;-1.60;1.00
13744;DHT22;6943;52.368;9.966;2022-11-20T01:12:24;-1.60;1.00
13744;DHT22;6943;52.368;9.966;2022-11-20T01:14:51;-1.60;1.00
13744;DHT22;6943;52.368;9.966;2022-11-20T01:17:16;-1.70;1.00
13744;DHT22;6943;52.368;9.966;2022-11-20T01:19:42;-1.70;1.00
13744;DHT22;6943;52.368;9.966;2022-11-20T01:22:07;-1.70;1.00
13744;DHT22;6943;52.368;9.966;2022-11-20T01:24:33;-1.70;1.00
13744;DHT22;6943;52.368;9.966;2022-11-20T01:26:58;-1.60;1.00
13744;DHT22;6943;52.368;9.966;2022-11-20T01:29:24;-1.50;1.00
13744;DHT22;6943;52.368;9.966;2022-11-20T01:31:51;-1.50;1.00
13744;DHT22;6943;52.368;9.966;2022-11-20T01:34:19;-1.40;1.00
13744;DHT22;6943;52.368;9.966;2022-11-20T01:36:45;-1.40;1.00
13744;DHT22;6943;52.368;9.966;2022-11-20T01:39:20;-1.30;1.00
13744;DHT22;6943;52.368;9.966;2022-11-20T01:41:46;-1.20;1.00
13744;DHT22;6943;52.368;9.966;2022-11-20T01:44:55;-1.20;1.00
13744;DHT22;6943;52.368;9.966;2022-11-20T01:47:31;-1.20;99.90
13744;DHT22;6943;52.368;9.966;2022-11-20T01:50:05;-1.10;99.90
13744;DHT22;6943;52.368;9.966;2022-11-20T01:52:41;-1.10;99.90
13744;DHT22;6943;52.368;9.966;2022-11-20T01:55:15;-1.10;99.90
13744;DHT22;6943;52.368;9.966;2022-11-20T01:57:44;-1.10;99.90
13744;DHT22;6943;52.368;9.966;2022-11-20T02:00:13;-1.10;99.90
13744;DHT22;6943;52.368;9.966;2022-11-20T02:02:44;-1.00;99.90
13744;DHT22;6943;52.368;9.966;2022-11-20T02:05:20;-0.90;99.90
13744;DHT22;6943;52.368;9.966;2022-11-20T02:07:48;-0.90;99.90
13744;DHT22;6943;52.368;9.966;2022-11-20T02:10:14;-0.80;99.90
13744;DHT22;6943;52.368;9.966;2022-11-20T02:12:40;-0.70;99.90
13744;DHT22;6943;52.368;9.966;2022-11-20T02:15:24;-0.60;99.90
13744;DHT22;6943;52.368;9.966;2022-11-20T02:17:49;-0.50;97.70
13744;DHT22;6943;52.368;9.966;2022-11-20T02:20:15;-0.40;44.30
13744;DHT22;6943;52.368;9.966;2022-11-20T02:22:53;-0.30;1.50
13744;DHT22;6943;52.368;9.966;2022-11-20T02:25:20;-0.40;1.00
13744;DHT22;6943;52.368;9.966;2022-11-20T02:27:46;-0.30;1.00
13744;DHT22;6943;52.368;9.966;2022-11-20T02:30:12;-0.30;1.00
13744;DHT22;6943;52.368;9.966;2022-11-20T02:32:38;-0.30;1.00
13744;DHT22;6943;52.368;9.966;2022-11-20T02:37:48;-0.20;1.00
13744;DHT22;6943;52.368;9.966;2022-11-20T02:40:14;-0.20;1.00
13744;DHT22;6943;52.368;9.966;2022-11-20T02:42:39;-0.10;1.00
13744;DHT22;6943;52.368;9.966;2022-11-20T02:45:05;-0.10;1.00
13744;DHT22;6943;52.368;9.966;2022-11-20T02:47:32;-0.10;1.00
13744;DHT22;6943;52.368;9.966;2022-11-20T02:49:58;-0.10;1.00
13744;DHT22;6943;52.368;9.966;2022-11-20T02:52:24;-0.20;1.00
13744;DHT22;6943;52.368;9.966;2022-11-20T02:54:49;-0.10;1.00
13744;DHT22;6943;52.368;9.966;2022-11-20T02:57:15;-0.20;1.00
13744;DHT22;6943;52.368;9.966;2022-11-20T02:59:40;-0.10;1.00
13744;DHT22;6943;52.368;9.966;2022-11-20T03:02:06;-0.20;1.00
13744;DHT22;6943;52.368;9.966;2022-11-20T03:04:31;-0.30;1.00
13744;DHT22;6943;52.368;9.966;2022-11-20T03:06:57;-0.30;1.00
13744;DHT22;6943;52.368;9.966;2022-11-20T03:09:22;-0.40;1.00
13744;DHT22;6943;52.368;9.966;2022-11-20T03:11:48;-0.40;1.00
13744;DHT22;6943;52.368;9.966;2022-11-20T03:14:13;-0.50;1.00
13744;DHT22;6943;52.368;9.966;2022-11-20T03:16:39;-0.60;1.00
13744;DHT22;6943;52.368;9.966;2022-11-20T03:19:05;-0.70;19.00
13744;DHT22;6943;52.368;9.966;2022-11-20T03:21:33;-0.70;74.50
13744;DHT22;6943;52.368;9.966;2022-11-20T03:23:58;-0.80;99.90
13744;DHT22;6943;52.368;9.966;2022-11-20T03:26:25;-0.80;99.90
13744;DHT22;6943;52.368;9.966;2022-11-20T03:28:53;-0.80;99.90
13744;DHT22;6943;52.368;9.966;2022-11-20T03:31:21;-0.80;99.90
13744;DHT22;6943;52.368;9.966;2022-11-20T03:33:47;-0.80;99.90
13744;DHT22;6943;52.368;9.966;2022-11-20T03:36:14;-0.90;99.90
13744;DHT22;6943;52.368;9.966;2022-11-20T03:38:40;-0.80;99.90
13744;DHT22;6943;52.368;9.966;2022-11-20T03:41:27;-0.80;99.90
13744;DHT22;6943;52.368;9.966;2022-11-20T03:44:01;-0.90;99.90
13744;DHT22;6943;52.368;9.966;2022-11-20T03:46:28;-0.80;99.90
13744;DHT22;6943;52.368;9.966;2022-11-20T03:48:54;-0.80;99.90
13744;DHT22;6943;52.368;9.966;2022-11-20T03:51:22;-0.70;99.90
13744;DHT22;6943;52.368;9.966;2022-11-20T03:53:50;-0.60;99.90
13744;DHT22;6943;52.368;9.966;2022-11-20T03:56:18;-0.60;99.90
13744;DHT22;6943;52.368;9.966;2022-11-20T03:58:44;-0.50;99.90
13744;DHT22;6943;52.368;9.966;2022-11-20T04:01:11;-0.50;99.90
13744;DHT22;6943;52.368;9.966;2022-11-20T04:03:38;-0.50;99.90
13744;DHT22;6943;52.368;9.966;2022-11-20T04:06:09;-0.50;99.90
13744;DHT22;6943;52.368;9.966;2022-11-20T04:08:36;-0.40;99.90
13744;DHT22;6943;52.368;9.966;2022-11-20T04:11:15;-0.40;99.90
13744;DHT22;6943;52.368;9.966;2022-11-20T04:13:42;-0.30;71.90
13744;DHT22;6943;52.368;9.966;2022-11-20T04:16:10;-0.40;1.00
13744;DHT22;6943;52.368;9.966;2022-11-20T04:18:36;-0.50;1.00
13744;DHT22;6943;52.368;9.966;2022-11-20T04:21:03;-0.60;8.20
13744;DHT22;6943;52.368;9.966;2022-11-20T04:23:29;-0.60;90.40
13744;DHT22;6943;52.368;9.966;2022-11-20T04:25:55;-0.60;99.10
13744;DHT22;6943;52.368;9.966;2022-11-20T04:28:25;-0.50;99.90
13744;DHT22;6943;52.368;9.966;2022-11-20T04:30:51;-0.50;90.80
13744;DHT22;6943;52.368;9.966;2022-11-20T04:33:16;-0.40;62.10
13744;DHT22;6943;52.368;9.966;2022-11-20T04:35:48;-0.40;24.40
13744;DHT22;6943;52.368;9.966;2022-11-20T04:38:14;-0.30;1.00
13744;DHT22;6943;52.368;9.966;2022-11-20T04:40:39;-0.30;1.00
13744;DHT22;6943;52.368;9.966;2022-11-20T04:43:05;-0.30;1.00
13744;DHT22;6943;52.368;9.966;2022-11-20T04:45:30;-0.30;1.00
13744;DHT22;6943;52.368;9.966;2022-11-20T04:47:56;-0.30;1.00
13744;DHT22;6943;52.368;9.966;2022-11-20T04:50:21;-0.40;1.00
13744;DHT22;6943;52.368;9.966;2022-11-20T04:52:47;-0.30;1.00
13744;DHT22;6943;52.368;9.966;2022-11-20T04:55:12;-0.30;1.00
13744;DHT22;6943;52.368;9.966;2022-11-20T04:57:38;-0.30;1.00
13744;DHT22;6943;52.368;9.966;2022-11-20T05:00:04;-0.20;1.00
13744;DHT22;6943;52.368;9.966;2022-11-20T05:02:31;-0.20;1.00
13744;DHT22;6943;52.368;9.966;2022-11-20T05:04:56;-0.20;1.00
13744;DHT22;6943;52.368;9.966;2022-11-20T05:07:22;-0.20;1.00
13744;DHT22;6943;52.368;9.966;2022-11-20T05:09:47;-0.10;1.00
13744;DHT22;6943;52.368;9.966;2022-11-20T05:12:13;0.00;1.00
13744;DHT22;6943;52.368;9.966;2022-11-20T05:14:38;0.00;1.00
13744;DHT22;6943;52.368;9.966;2022-11-20T05:17:04;0.10;1.00
13744;DHT22;6943;52.368;9.966;2022-11-20T05:19:29;0.20;1.00
13744;DHT22;6943;52.368;9.966;2022-11-20T05:21:55;0.20;1.00
13744;DHT22;6943;52.368;9.966;2022-11-20T05:24:20;0.20;1.00
13744;DHT22;6943;52.368;9.966;2022-11-20T05:26:46;0.10;1.00
13744;DHT22;6943;52.368;9.966;2022-11-20T05:29:12;0.00;1.00
13744;DHT22;6943;52.368;9.966;2022-11-20T05:31:39;0.00;1.00
13744;DHT22;6943;52.368;9.966;2022-11-20T05:34:06;0.10;1.00
13744;DHT22;6943;52.368;9.966;2022-11-20T05:36:32;0.10;1.00
13744;DHT22;6943;52.368;9.966;2022-11-20T05:38:57;0.10;1.00
13744;DHT22;6943;52.368;9.966;2022-11-20T05:41:23;0.10;1.00
13744;DHT22;6943;52.368;9.966;2022-11-20T05:43:49;0.20;1.00
13744;DHT22;6943;52.368;9.966;2022-11-20T05:46:17;0.20;1.00
13744;DHT22;6943;52.368;9.966;2022-11-20T05:48:44;0.20;1.00
13744;DHT22;6943;52.368;9.966;2022-11-20T05:51:12;0.20;1.00
13744;DHT22;6943;52.368;9.966;2022-11-20T05:53:38;0.20;1.00
13744;DHT22;6943;52.368;9.966;2022-11-20T05:56:09;0.20;1.00
13744;DHT22;6943;52.368;9.966;2022-11-20T05:58:36;0.20;1.00
13744;DHT22;6943;52.368;9.966;2022-11-20T06:03:37;0.30;1.00
13744;DHT22;6943;52.368;9.966;2022-11-20T06:06:04;0.30;1.00
13744;DHT22;6943;52.368;9.966;2022-11-20T06:08:30;0.30;1.00
13744;DHT22;6943;52.368;9.966;2022-11-20T06:10:55;0.30;1.00
13744;DHT22;6943;52.368;9.966;2022-11-20T06:13:21;0.20;1.00
13744;DHT22;6943;52.368;9.966;2022-11-20T06:15:50;0.30;1.00
13744;DHT22;6943;52.368;9.966;2022-11-20T06:18:16;0.30;1.00
13744;DHT22;6943;52.368;9.966;2022-11-20T06:20:42;0.30;1.00
13744;DHT22;6943;52.368;9.966;2022-11-20T06:23:07;0.40;1.00
13744;DHT22;6943;52.368;9.966;2022-11-20T06:25:33;0.40;1.00
13744;DHT22;6943;52.368;9.966;2022-11-20T06:28:02;0.40;1.00
13744;DHT22;6943;52.368;9.966;2022-11-20T06:30:27;0.40;1.00
13744;DHT22;6943;52.368;9.966;2022-11-20T06:32:53;0.40;1.00
13744;DHT22;6943;52.368;9.966;2022-11-20T06:35:18;0.40;1.00
13744;DHT22;6943;52.368;9.966;2022-11-20T06:37:44;0.30;1.00
13744;DHT22;6943;52.368;9.966;2022-11-20T06:40:10;0.40;1.00
13744;DHT22;6943;52.368;9.966;2022-11-20T06:42:35;0.40;1.00
13744;DHT22;6943;52.368;9.966;2022-11-20T06:45:01;0.30;1.00
13744;DHT22;6943;52.368;9.966;2022-11-20T06:47:26;0.30;1.00
13744;DHT22;6943;52.368;9.966;2022-11-20T06:49:52;0.30;1.00
13744;DHT22;6943;52.368;9.966;2022-11-20T06:52:17;0.30;1.00
13744;DHT22;6943;52.368;9.966;2022-11-20T06:54:43;0.30;1.00
13744;DHT22;6943;52.368;9.966;2022-11-20T06:57:08;0.40;1.00
13744;DHT22;6943;52.368;9.966;2022-11-20T06:59:34;0.40;1.00
13744;DHT22;6943;52.368;9.966;2022-11-20T07:01:59;0.40;1.00
13744;DHT22;6943;52.368;9.966;2022-11-20T07:04:25;0.40;1.00
13744;DHT22;6943;52.368;9.966;2022-11-20T07:06:50;0.30;1.00
13744;DHT22;6943;52.368;9.966;2022-11-20T07:09:15;0.30;1.00
13744;DHT22;6943;52.368;9.966;2022-11-20T07:11:41;0.20;1.00
13744;DHT22;6943;52.368;9.966;2022-11-20T07:14:07;0.20;1.00
13744;DHT22;6943;52.368;9.966;2022-11-20T07:16:32;0.20;1.00
13744;DHT22;6943;52.368;9.966;2022-11-20T07:18:58;0.30;1.00
13744;DHT22;6943;52.368;9.966;2022-11-20T07:21:23;0.30;1.00
13744;DHT22;6943;52.368;9.966;2022-11-20T07:23:49;0.30;1.00
13744;DHT22;6943;52.368;9.966;2022-11-20T07:26:15;0.30;1.00
13744;DHT22;6943;52.368;9.966;2022-11-20T07:28:44;0.30;1.00
13744;DHT22;6943;52.368;9.966;2022-11-20T07:31:09;0.40;1.00
13744;DHT22;6943;52.368;9.966;2022-11-20T07:33:35;0.40;1.00
13744;DHT22;6943;52.368;9.966;2022-11-20T07:36:01;0.40;1.00
13744;DHT22;6943;52.368;9.966;2022-11-20T07:38:27;0.50;1.00
13744;DHT22;6943;52.368;9.966;2022-11-20T07:40:56;0.60;1.00
13744;DHT22;6943;52.368;9.966;2022-11-20T07:43:23;0.60;1.00
13744;DHT22;6943;52.368;9.966;2022-11-20T07:45:48;0.60;1.00
13744;DHT22;6943;52.368;9.966;2022-11-20T07:48:13;0.60;1.00
13744;DHT22;6943;52.368;9.966;2022-11-20T07:50:39;0.50;1.00
13744;DHT22;6943;52.368;9.966;2022-11-20T07:53:05;0.60;1.00
13744;DHT22;6943;52.368;9.966;2022-11-20T07:55:31;0.60;1.00
13744;DHT22;6943;52.368;9.966;2022-11-20T07:57:58;0.70;1.00
13744;DHT22;6943;52.368;9.966;2022-11-20T08:00:25;0.80;1.00
13744;DHT22;6943;52.368;9.966;2022-11-20T08:02:51;0.80;1.00
13744;DHT22;6943;52.368;9.966;2022-11-20T08:05:17;0.70;1.00
13744;DHT22;6943;52.368;9.966;2022-11-20T08:07:43;0.60;1.00
13744;DHT22;6943;52.368;9.966;2022-11-20T08:10:11;0.60;1.00
13744;DHT22;6943;52.368;9.966;2022-11-20T08:12:49;0.60;1.00
13744;DHT22;6943;52.368;9.966;2022-11-20T08:15:35;0.60;1.00
13744;DHT22;6943;52.368;9.966;2022-11-20T08:18:09;0.70;1.00
13744;DHT22;6943;52.368;9.966;2022-11-20T08:20:38;0.80;1.00
13744;DHT22;6943;52.368;9.966;2022-11-20T08:23:05;0.80;1.00
13744;DHT22;6943;52.368;9.966;2022-11-20T08:25:33;0.90;1.00
13744;DHT22;6943;52.368;9.966;2022-11-20T08:28:00;0.90;1.00
13744;DHT22;6943;52.368;9.966;2022-11-20T08:30:26;1.00;1.00
13744;DHT22;6943;52.368;9.966;2022-11-20T08:32:52;1.00;1.00
13744;DHT22;6943;52.368;9.966;2022-11-20T08:35:17;1.00;1.00
13744;DHT22;6943;52.368;9.966;2022-11-20T08:37:46;1.10;1.00
13744;DHT22;6943;52.368;9.966;2022-11-20T08:40:12;1.10;1.00
13744;DHT22;6943;52.368;9.966;2022-11-20T08:42:45;1.20;1.00
13744;DHT22;6943;52.368;9.966;2022-11-20T08:45:10;1.20;1.00
13744;DHT22;6943;52.368;9.966;2022-11-20T08:47:36;1.30;1.00
13744;DHT22;6943;52.368;9.966;2022-11-20T08:50:01;1.50;1.00
13744;DHT22;6943;52.368;9.966;2022-11-20T08:52:27;1.60;1.00
13744;DHT22;6943;52.368;9.966;2022-11-20T08:54:52;1.50;1.00
13744;DHT22;6943;52.368;9.966;2022-11-20T08:57:17;1.70;1.00
13744;DHT22;6943;52.368;9.966;2022-11-20T08:59:43;1.60;1.00
13744;DHT22;6943;52.368;9.966;2022-11-20T09:02:09;1.70;1.00
13744;DHT22;6943;52.368;9.966;2022-11-20T09:04:34;1.80;1.00
13744;DHT22;6943;52.368;9.966;2022-11-20T09:07:00;1.80;1.00
13744;DHT22;6943;52.368;9.966;2022-11-20T09:09:26;1.80;1.00
13744;DHT22;6943;52.368;9.966;2022-11-20T09:11:51;1.90;1.00
13744;DHT22;6943;52.368;9.966;2022-11-20T09:14:17;2.10;1.00
13744;DHT22;6943;52.368;9.966;2022-11-20T09:16:44;2.10;1.00
13744;DHT22;6943;52.368;9.966;2022-11-20T09:19:10;2.20;1.00
13744;DHT22;6943;52.368;9.966;2022-11-20T09:21:35;2.10;1.00
13744;DHT22;6943;52.368;9.966;2022-11-20T09:24:01;2.20;1.00
13744;DHT22;6943;52.368;9.966;2022-11-20T09:26:26;2.30;99.90
13744;DHT22;6943;52.368;9.966;2022-11-20T09:28:52;2.40;99.90
13744;DHT22;6943;52.368;9.966;2022-11-20T09:31:23;2.40;99.90
13744;DHT22;6943;52.368;9.966;2022-11-20T09:33:49;2.40;99.90
13744;DHT22;6943;52.368;9.966;2022-11-20T09:36:15;2.40;99.90
13744;DHT22;6943;52.368;9.966;2022-11-20T09:38:42;2.20;99.90
13744;DHT22;6943;52.368;9.966;2022-11-20T09:41:38;2.40;1.00
13744;DHT22;6943;52.368;9.966;2022-11-20T09:47:06;2.80;99.90
13744;DHT22;6943;52.368;9.966;2022-11-20T09:55:12;3.60;99.90
13744;DHT22;6943;52.368;9.966;2022-11-20T09:57:44;4.00;99.90
13744;DHT22;6943;52.368;9.966;2022-11-20T10:00:12;4.10;99.90
13744;DHT22;6943;52.368;9.966;2022-11-20T10:03:21;4.00;99.90
13744;DHT22;6943;52.368;9.966;2022-11-20T10:05:53;3.60;99.90
13744;DHT22;6943;52.368;9.966;2022-11-20T10:08:38;3.80;99.90
13744;DHT22;6943;52.368;9.966;2022-11-20T10:17:14;3.90;99.90
13744;DHT22;6943;52.368;9.966;2022-11-20T10:20:10;3.80;99.90
13744;DHT22;6943;52.368;9.966;2022-11-20T10:25:39;3.50;99.90
13744;DHT22;6943;52.368;9.966;2022-11-20T10:28:21;3.50;99.90
13744;DHT22;6943;52.368;9.966;2022-11-20T10:31:06;3.40;99.90
13744;DHT22;6943;52.368;9.966;2022-11-20T10:33:35;3.50;99.90
13744;DHT22;6943;52.368;9.966;2022-11-20T10:36:06;3.40;99.90
13744;DHT22;6943;52.368;9.966;2022-11-20T10:38:40;3.30;99.90
13744;DHT22;6943;52.368;9.966;2022-11-20T10:41:24;3.40;99.90
13744;DHT22;6943;52.368;9.966;2022-11-20T10:46:40;3.50;99.90
13744;DHT22;6943;52.368;9.966;2022-11-20T10:49:15;3.70;99.90
13744;DHT22;6943;52.368;9.966;2022-11-20T10:51:59;3.80;99.90
13744;DHT22;6943;52.368;9.966;2022-11-20T10:55:10;3.90;99.90
13744;DHT22;6943;52.368;9.966;2022-11-20T10:57:52;3.70;99.90
13744;DHT22;6943;52.368;9.966;2022-11-20T11:00:20;3.80;99.90
13744;DHT22;6943;52.368;9.966;2022-11-20T11:02:49;4.00;99.90
13744;DHT22;6943;52.368;9.966;2022-11-20T11:07:49;4.20;99.90
13744;DHT22;6943;52.368;9.966;2022-11-20T11:10:18;4.40;99.90
13744;DHT22;6943;52.368;9.966;2022-11-20T11:12:48;4.20;99.90
13744;DHT22;6943;52.368;9.966;2022-11-20T11:15:26;4.10;99.90
13744;DHT22;6943;52.368;9.966;2022-11-20T11:17:52;3.90;99.90
13744;DHT22;6943;52.368;9.966;2022-11-20T11:20:20;3.90;99.90
13744;DHT22;6943;52.368;9.966;2022-11-20T11:22:57;4.00;99.90
13744;DHT22;6943;52.368;9.966;2022-11-20T11:25:28;4.00;99.90
13744;DHT22;6943;52.368;9.966;2022-11-20T11:27:59;4.10;99.90
13744;DHT22;6943;52.368;9.966;2022-11-20T11:30:26;4.30;99.90
13744;DHT22;6943;52.368;9.966;2022-11-20T11:33:04;4.50;99.90
13744;DHT22;6943;52.368;9.966;2022-11-20T11:35:30;4.60;99.90
13744;DHT22;6943;52.368;9.966;2022-11-20T11:38:05;4.80;99.90
13744;DHT22;6943;52.368;9.966;2022-11-20T11:40:34;4.60;99.90
13744;DHT22;6943;52.368;9.966;2022-11-20T11:43:04;4.80;99.90
13744;DHT22;6943;52.368;9.966;2022-11-20T11:45:30;4.80;99.90
13744;DHT22;6943;52.368;9.966;2022-11-20T11:48:01;5.00;99.90
13744;DHT22;6943;52.368;9.966;2022-11-20T11:50:29;4.80;99.90
13744;DHT22;6943;52.368;9.966;2022-11-20T11:58:51;4.60;99.90
13744;DHT22;6943;52.368;9.966;2022-11-20T12:06:26;4.70;99.90
13744;DHT22;6943;52.368;9.966;2022-11-20T12:09:05;4.80;99.90
13744;DHT22;6943;52.368;9.966;2022-11-20T12:14:38;4.40;99.90
13744;DHT22;6943;52.368;9.966;2022-11-20T12:17:07;4.30;99.90
13744;DHT22;6943;52.368;9.966;2022-11-20T12:19:34;4.20;99.90
13744;DHT22;6943;52.368;9.966;2022-11-20T12:22:36;4.20;99.90
13744;DHT22;6943;52.368;9.966;2022-11-20T12:25:16;4.20;99.90
13744;DHT22;6943;52.368;9.966;2022-11-20T12:31:35;4.00;99.90
13744;DHT22;6943;52.368;9.966;2022-11-20T12:33:47;4.00;99.90
13744;DHT22;6943;52.368;9.966;2022-11-20T12:36:41;4.00;99.90
13744;DHT22;6943;52.368;9.966;2022-11-20T12:39:23;4.10;99.90
13744;DHT22;6943;52.368;9.966;2022-11-20T12:42:20;4.20;99.90
13744;DHT22;6943;52.368;9.966;2022-11-20T12:45:34;4.20;99.90
13744;DHT22;6943;52.368;9.966;2022-11-20T12:53:48;4.40;99.90
13744;DHT22;6943;52.368;9.966;2022-11-20T13:02:01;4.60;99.90
13744;DHT22;6943;52.368;9.966;2022-11-20T13:07:05;4.30;99.90
13744;DHT22;6943;52.368;9.966;2022-11-20T13:09:33;4.30;99.90
13744;DHT22;6943;52.368;9.966;2022-11-20T13:18:02;4.50;99.90
13744;DHT22;6943;52.368;9.966;2022-11-20T13:20:39;4.30;99.90
13744;DHT22;6943;52.368;9.966;2022-11-20T13:23:06;4.20;99.90
13744;DHT22;6943;52.368;9.966;2022-11-20T13:25:32;4.20;99.90
13744;DHT22;6943;52.368;9.966;2022-11-20T13:28:00;4.20;99.90
13744;DHT22;6943;52.368;9.966;2022-11-20T13:30:28;4.20;99.90
13744;DHT22;6943;52.368;9.966;2022-11-20T13:35:31;4.00;99.90
13744;DHT22;6943;52.368;9.966;2022-11-20T13:38:06;4.00;99.90
13744;DHT22;6943;52.368;9.966;2022-11-20T13:40:32;4.00;99.90
13744;DHT22;6943;52.368;9.966;2022-11-20T13:45:39;4.00;99.90
13744;DHT22;6943;52.368;9.966;2022-11-20T13:48:21;4.10;99.90
13744;DHT22;6943;52.368;9.966;2022-11-20T13:54:05;4.10;99.90
13744;DHT22;6943;52.368;9.966;2022-11-20T14:02:27;4.00;99.90
13744;DHT22;6943;52.368;9.966;2022-11-20T14:04:56;3.90;99.90
13744;DHT22;6943;52.368;9.966;2022-11-20T14:07:27;3.80;99.90
13744;DHT22;6943;52.368;9.966;2022-11-20T14:09:57;3.80;99.90
13744;DHT22;6943;52.368;9.966;2022-11-20T14:12:31;3.90;99.90
13744;DHT22;6943;52.368;9.966;2022-11-20T14:14:57;3.80;99.90
13744;DHT22;6943;52.368;9.966;2022-11-20T14:17:30;3.80;99.90
13744;DHT22;6943;52.368;9.966;2022-11-20T14:20:02;3.70;99.90
13744;DHT22;6943;52.368;9.966;2022-11-20T14:22:29;3.70;99.90
13744;DHT22;6943;52.368;9.966;2022-11-20T14:25:25;3.70;99.90
13744;DHT22;6943;52.368;9.966;2022-11-20T14:28:00;3.70;99.90
13744;DHT22;6943;52.368;9.966;2022-11-20T14:30:29;3.70;99.90
13744;DHT22;6943;52.368;9.966;2022-11-20T14:32:57;3.80;99.90
13744;DHT22;6943;52.368;9.966;2022-11-20T14:35:29;3.80;99.90
13744;DHT22;6943;52.368;9.966;2022-11-20T14:37:55;3.70;99.90
13744;DHT22;6943;52.368;9.966;2022-11-20T14:42:48;3.50;99.90
13744;DHT22;6943;52.368;9.966;2022-11-20T14:45:13;3.50;99.90
13744;DHT22;6943;52.368;9.966;2022-11-20T14:47:40;3.50;99.90
13744;DHT22;6943;52.368;9.966;2022-11-20T14:50:17;3.30;99.90
13744;DHT22;6943;52.368;9.966;2022-11-20T14:52:58;3.10;99.90
13744;DHT22;6943;52.368;9.966;2022-11-20T14:57:58;2.70;1.00
13744;DHT22;6943;52.368;9.966;2022-11-20T15:00:24;2.50;1.00
13744;DHT22;6943;52.368;9.966;2022-11-20T15:02:51;2.30;1.00
13744;DHT22;6943;52.368;9.966;2022-11-20T15:05:25;2.10;1.00
13744;DHT22;6943;52.368;9.966;2022-11-20T15:08:04;2.00;1.00
13744;DHT22;6943;52.368;9.966;2022-11-20T15:10:30;1.90;1.00
13744;DHT22;6943;52.368;9.966;2022-11-20T15:13:00;1.90;1.00
13744;DHT22;6943;52.368;9.966;2022-11-20T15:15:29;1.80;1.00
13744;DHT22;6943;52.368;9.966;2022-11-20T15:17:56;1.70;1.00
13744;DHT22;6943;52.368;9.966;2022-11-20T15:20:27;1.60;1.00
13744;DHT22;6943;52.368;9.966;2022-11-20T15:22:53;1.60;1.00
13744;DHT22;6943;52.368;9.966;2022-11-20T15:25:19;1.70;1.00
13744;DHT22;6943;52.368;9.966;2022-11-20T15:27:45;1.80;1.00
13744;DHT22;6943;52.368;9.966;2022-11-20T15:30:17;1.80;1.00
13744;DHT22;6943;52.368;9.966;2022-11-20T15:32:44;1.70;1.00
13744;DHT22;6943;52.368;9.966;2022-11-20T15:35:10;1.70;1.00
13744;DHT22;6943;52.368;9.966;2022-11-20T15:37:37;1.60;1.00
13744;DHT22;6943;52.368;9.966;2022-11-20T15:40:03;1.40;1.00
13744;DHT22;6943;52.368;9.966;2022-11-20T15:42:29;1.40;1.00
13744;DHT22;6943;52.368;9.966;2022-11-20T15:44:54;1.40;1.00
13744;DHT22;6943;52.368;9.966;2022-11-20T15:47:25;1.30;1.00
13744;DHT22;6943;52.368;9.966;2022-11-20T15:49:51;1.30;59.10
13744;DHT22;6943;52.368;9.966;2022-11-20T15:52:17;1.30;99.90
13744;DHT22;6943;52.368;9.966;2022-11-20T15:54:42;1.30;99.90
13744;DHT22;6943;52.368;9.966;2022-11-20T15:57:08;1.30;99.90
13744;DHT22;6943;52.368;9.966;2022-11-20T15:59:33;1.40;99.90
13744;DHT22;6943;52.368;9.966;2022-11-20T16:01:59;1.40;99.90
13744;DHT22;6943;52.368;9.966;2022-11-20T16:04:25;1.40;99.90
13744;DHT22;6943;52.368;9.966;2022-11-20T16:06:50;1.30;99.90
13744;DHT22;6943;52.368;9.966;2022-11-20T16:09:16;1.30;99.90
13744;DHT22;6943;52.368;9.966;2022-11-20T16:11:41;1.30;99.90
13744;DHT22;6943;52.368;9.966;2022-11-20T16:14:10;1.30;99.90
13744;DHT22;6943;52.368;9.966;2022-11-20T16:16:55;1.40;99.90
13744;DHT22;6943;52.368;9.966;2022-11-20T16:19:20;1.40;99.90
13744;DHT22;6943;52.368;9.966;2022-11-20T16:21:46;1.40;99.90
13744;DHT22;6943;52.368;9.966;2022-11-20T16:24:13;1.40;99.90
13744;DHT22;6943;52.368;9.966;2022-11-20T16:26:40;1.50;99.90
13744;DHT22;6943;52.368;9.966;2022-11-20T16:29:06;1.40;99.90
13744;DHT22;6943;52.368;9.966;2022-11-20T16:31:32;1.30;99.90
13744;DHT22;6943;52.368;9.966;2022-11-20T16:34:01;1.10;99.90
13744;DHT22;6943;52.368;9.966;2022-11-20T16:36:28;0.90;99.90
13744;DHT22;6943;52.368;9.966;2022-11-20T16:38:55;0.90;99.90
13744;DHT22;6943;52.368;9.966;2022-11-20T16:41:21;0.80;1.00
13744;DHT22;6943;52.368;9.966;2022-11-20T16:43:48;0.70;1.00
13744;DHT22;6943;52.368;9.966;2022-11-20T16:46:16;0.60;1.00
13744;DHT22;6943;52.368;9.966;2022-11-20T16:48:41;0.60;1.00
13744;DHT22;6943;52.368;9.966;2022-11-20T16:51:08;0.50;1.00
13744;DHT22;6943;52.368;9.966;2022-11-20T16:53:35;0.50;1.00
13744;DHT22;6943;52.368;9.966;2022-11-20T16:56:15;0.40;1.00
13744;DHT22;6943;52.368;9.966;2022-11-20T16:58:45;0.50;1.00
13744;DHT22;6943;52.368;9.966;2022-11-20T17:01:13;0.50;1.00
13744;DHT22;6943;52.368;9.966;2022-11-20T17:03:40;0.50;1.00
13744;DHT22;6943;52.368;9.966;2022-11-20T17:06:17;0.50;1.00
13744;DHT22;6943;52.368;9.966;2022-11-20T17:08:43;0.50;1.00
13744;DHT22;6943;52.368;9.966;2022-11-20T17:11:12;0.50;1.00
13744;DHT22;6943;52.368;9.966;2022-11-20T17:13:38;0.50;1.00
13744;DHT22;6943;52.368;9.966;2022-11-20T17:16:09;0.50;1.00
13744;DHT22;6943;52.368;9.966;2022-11-20T17:18:35;0.60;1.00
13744;DHT22;6943;52.368;9.966;2022-11-20T17:21:00;0.70;1.00
13744;DHT22;6943;52.368;9.966;2022-11-20T17:23:37;0.70;1.00
13744;DHT22;6943;52.368;9.966;2022-11-20T17:26:11;0.80;1.00
13744;DHT22;6943;52.368;9.966;2022-11-20T17:28:39;0.60;1.00
13744;DHT22;6943;52.368;9.966;2022-11-20T17:31:07;0.50;1.00
13744;DHT22;6943;52.368;9.966;2022-11-20T17:33:35;0.40;1.00
13744;DHT22;6943;52.368;9.966;2022-11-20T17:36:01;0.30;1.00
13744;DHT22;6943;52.368;9.966;2022-11-20T17:38:27;0.20;8.00
13744;DHT22;6943;52.368;9.966;2022-11-20T17:40:52;0.10;99.90
13744;DHT22;6943;52.368;9.966;2022-11-20T17:43:18;0.00;99.90